Terminal Aerodrome Forecast
Issued by NWS

Home | Current Version | Previous Version | Text Only | Print | Product List | Glossary On
Versions: 1 2 3 4 5 6 7 8 9 10 11 12
422
FTPA31 PHFO 232347
TAFHJH
TAF
PHJH 232347Z 2400/2424 17014KT P6SM SCT040 BKN100
     FM240600 20012KT P6SM VCSH SCT020 BKN040
     FM241200 24012KT P6SM VCTS SCT015CB BKN030 BKN040
     FM242000 35012KT P6SM VCSH SCT020 BKN050
      AMD NOT SKED AFT 240400=

USA.gov is the U.S. government's official web portal to all federal, state and local government web resources and services.